sensor_id;sensor_type;location;lat;lon;timestamp;temperature;humidity
31735;DHT22;18313;48.518;9.124;2023-07-29T00:00:12;17.60;99.90
31735;DHT22;18313;48.518;9.124;2023-07-29T00:02:40;17.50;99.90
31735;DHT22;18313;48.518;9.124;2023-07-29T00:05:07;17.50;99.90
31735;DHT22;18313;48.518;9.124;2023-07-29T00:07:35;17.50;99.90
31735;DHT22;18313;48.518;9.124;2023-07-29T00:10:03;17.40;99.90
31735;DHT22;18313;48.518;9.124;2023-07-29T00:12:30;17.40;99.90
31735;DHT22;18313;48.518;9.124;2023-07-29T00:14:57;17.40;99.90
31735;DHT22;18313;48.518;9.124;2023-07-29T00:17:25;17.40;99.90
31735;DHT22;18313;48.518;9.124;2023-07-29T00:19:52;17.40;99.90
31735;DHT22;18313;48.518;9.124;2023-07-29T00:22:19;17.40;99.90
31735;DHT22;18313;48.518;9.124;2023-07-29T00:24:52;17.40;99.90
31735;DHT22;18313;48.518;9.124;2023-07-29T00:27:20;17.40;99.90
31735;DHT22;18313;48.518;9.124;2023-07-29T00:29:48;17.40;99.90
31735;DHT22;18313;48.518;9.124;2023-07-29T00:32:15;17.40;99.90
31735;DHT22;18313;48.518;9.124;2023-07-29T00:34:42;17.40;99.90
31735;DHT22;18313;48.518;9.124;2023-07-29T00:37:10;17.30;99.90
31735;DHT22;18313;48.518;9.124;2023-07-29T00:39:37;17.40;99.90
31735;DHT22;18313;48.518;9.124;2023-07-29T00:42:04;17.40;99.90
31735;DHT22;18313;48.518;9.124;2023-07-29T00:44:32;17.50;99.90
31735;DHT22;18313;48.518;9.124;2023-07-29T00:47:00;17.50;99.90
31735;DHT22;18313;48.518;9.124;2023-07-29T00:49:29;17.50;99.90
31735;DHT22;18313;48.518;9.124;2023-07-29T00:51:56;17.50;99.90
31735;DHT22;18313;48.518;9.124;2023-07-29T00:54:24;17.50;99.90
31735;DHT22;18313;48.518;9.124;2023-07-29T00:56:51;17.50;99.90
31735;DHT22;18313;48.518;9.124;2023-07-29T00:59:18;17.50;99.90
31735;DHT22;18313;48.518;9.124;2023-07-29T01:01:45;17.40;99.90
31735;DHT22;18313;48.518;9.124;2023-07-29T01:04:12;17.40;99.90
31735;DHT22;18313;48.518;9.124;2023-07-29T01:09:29;17.40;99.90
31735;DHT22;18313;48.518;9.124;2023-07-29T01:14:50;17.40;99.90
31735;DHT22;18313;48.518;9.124;2023-07-29T01:17:23;17.40;99.90
31735;DHT22;18313;48.518;9.124;2023-07-29T01:22:31;17.60;99.90
31735;DHT22;18313;48.518;9.124;2023-07-29T01:24:59;17.60;99.90
31735;DHT22;18313;48.518;9.124;2023-07-29T01:27:26;17.60;99.90
31735;DHT22;18313;48.518;9.124;2023-07-29T01:29:54;17.60;99.90
31735;DHT22;18313;48.518;9.124;2023-07-29T01:32:51;17.60;99.90
31735;DHT22;18313;48.518;9.124;2023-07-29T01:35:24;17.60;99.90
31735;DHT22;18313;48.518;9.124;2023-07-29T01:37:55;17.60;99.90
31735;DHT22;18313;48.518;9.124;2023-07-29T01:40:27;17.50;99.90
31735;DHT22;18313;48.518;9.124;2023-07-29T01:42:56;17.50;99.90
31735;DHT22;18313;48.518;9.124;2023-07-29T01:45:24;17.50;99.90
31735;DHT22;18313;48.518;9.124;2023-07-29T01:47:52;17.50;99.90
31735;DHT22;18313;48.518;9.124;2023-07-29T01:50:20;17.50;99.90
31735;DHT22;18313;48.518;9.124;2023-07-29T01:52:47;17.50;99.90
31735;DHT22;18313;48.518;9.124;2023-07-29T01:55:14;17.50;99.90
31735;DHT22;18313;48.518;9.124;2023-07-29T01:57:41;17.50;99.90
31735;DHT22;18313;48.518;9.124;2023-07-29T02:00:11;17.60;99.90
31735;DHT22;18313;48.518;9.124;2023-07-29T02:02:39;17.50;99.90
31735;DHT22;18313;48.518;9.124;2023-07-29T02:05:07;17.40;99.90
31735;DHT22;18313;48.518;9.124;2023-07-29T02:07:34;17.40;99.90
31735;DHT22;18313;48.518;9.124;2023-07-29T02:10:02;17.40;99.90
31735;DHT22;18313;48.518;9.124;2023-07-29T02:12:29;17.30;99.90
31735;DHT22;18313;48.518;9.124;2023-07-29T02:14:56;17.30;99.90
31735;DHT22;18313;48.518;9.124;2023-07-29T02:17:23;17.30;99.90
31735;DHT22;18313;48.518;9.124;2023-07-29T02:19:50;17.30;99.90
31735;DHT22;18313;48.518;9.124;2023-07-29T02:22:17;17.10;99.90
31735;DHT22;18313;48.518;9.124;2023-07-29T02:24:45;17.10;99.90
31735;DHT22;18313;48.518;9.124;2023-07-29T02:27:12;17.00;99.90
31735;DHT22;18313;48.518;9.124;2023-07-29T02:29:39;17.00;99.90
31735;DHT22;18313;48.518;9.124;2023-07-29T02:32:06;16.90;99.90
31735;DHT22;18313;48.518;9.124;2023-07-29T02:34:34;16.80;99.90
31735;DHT22;18313;48.518;9.124;2023-07-29T02:37:01;16.80;99.90
31735;DHT22;18313;48.518;9.124;2023-07-29T02:39:28;16.80;99.90
31735;DHT22;18313;48.518;9.124;2023-07-29T02:41:56;16.80;99.90
31735;DHT22;18313;48.518;9.124;2023-07-29T02:44:25;16.80;99.90
31735;DHT22;18313;48.518;9.124;2023-07-29T02:46:52;16.80;99.90
31735;DHT22;18313;48.518;9.124;2023-07-29T02:49:22;16.80;99.90
31735;DHT22;18313;48.518;9.124;2023-07-29T02:51:50;16.80;99.90
31735;DHT22;18313;48.518;9.124;2023-07-29T02:54:17;16.80;99.90
31735;DHT22;18313;48.518;9.124;2023-07-29T02:56:44;16.80;99.90
31735;DHT22;18313;48.518;9.124;2023-07-29T02:59:11;16.80;99.90
31735;DHT22;18313;48.518;9.124;2023-07-29T03:01:39;16.80;99.90
31735;DHT22;18313;48.518;9.124;2023-07-29T03:04:06;16.70;99.90
31735;DHT22;18313;48.518;9.124;2023-07-29T03:06:33;16.80;99.90
31735;DHT22;18313;48.518;9.124;2023-07-29T03:09:01;16.90;99.90
31735;DHT22;18313;48.518;9.124;2023-07-29T03:11:28;16.90;99.90
31735;DHT22;18313;48.518;9.124;2023-07-29T03:13:56;16.90;99.90
31735;DHT22;18313;48.518;9.124;2023-07-29T03:16:23;16.90;99.90
31735;DHT22;18313;48.518;9.124;2023-07-29T03:18:51;16.90;99.90
31735;DHT22;18313;48.518;9.124;2023-07-29T03:21:18;16.90;99.90
31735;DHT22;18313;48.518;9.124;2023-07-29T03:23:45;16.80;99.90
31735;DHT22;18313;48.518;9.124;2023-07-29T03:26:13;16.80;99.90
31735;DHT22;18313;48.518;9.124;2023-07-29T03:28:41;16.80;99.90
31735;DHT22;18313;48.518;9.124;2023-07-29T03:31:09;16.80;99.90
31735;DHT22;18313;48.518;9.124;2023-07-29T03:33:37;16.90;99.90
31735;DHT22;18313;48.518;9.124;2023-07-29T03:36:04;16.80;99.90
31735;DHT22;18313;48.518;9.124;2023-07-29T03:38:31;16.80;99.90
31735;DHT22;18313;48.518;9.124;2023-07-29T03:41:02;16.80;99.90
31735;DHT22;18313;48.518;9.124;2023-07-29T03:43:30;16.80;99.90
31735;DHT22;18313;48.518;9.124;2023-07-29T03:45:57;16.70;99.90
31735;DHT22;18313;48.518;9.124;2023-07-29T03:48:24;16.80;99.90
31735;DHT22;18313;48.518;9.124;2023-07-29T03:50:52;16.80;99.90
31735;DHT22;18313;48.518;9.124;2023-07-29T03:53:19;16.80;99.90
31735;DHT22;18313;48.518;9.124;2023-07-29T03:55:46;16.70;99.90
31735;DHT22;18313;48.518;9.124;2023-07-29T03:58:13;16.70;99.90
31735;DHT22;18313;48.518;9.124;2023-07-29T04:00:40;16.70;99.90
31735;DHT22;18313;48.518;9.124;2023-07-29T04:03:08;16.70;99.90
31735;DHT22;18313;48.518;9.124;2023-07-29T04:05:35;16.70;99.90
31735;DHT22;18313;48.518;9.124;2023-07-29T04:08:04;16.70;99.90
31735;DHT22;18313;48.518;9.124;2023-07-29T04:10:31;16.80;99.90
31735;DHT22;18313;48.518;9.124;2023-07-29T04:12:58;16.80;99.90
31735;DHT22;18313;48.518;9.124;2023-07-29T04:15:25;16.80;99.90
31735;DHT22;18313;48.518;9.124;2023-07-29T04:17:53;16.80;99.90
31735;DHT22;18313;48.518;9.124;2023-07-29T04:20:20;16.90;99.90
31735;DHT22;18313;48.518;9.124;2023-07-29T04:22:47;16.80;99.90
31735;DHT22;18313;48.518;9.124;2023-07-29T04:25:14;16.80;99.90
31735;DHT22;18313;48.518;9.124;2023-07-29T04:27:41;16.90;99.90
31735;DHT22;18313;48.518;9.124;2023-07-29T04:30:08;16.90;99.90
31735;DHT22;18313;48.518;9.124;2023-07-29T04:32:35;17.00;99.90
31735;DHT22;18313;48.518;9.124;2023-07-29T04:35:03;17.00;99.90
31735;DHT22;18313;48.518;9.124;2023-07-29T04:37:30;17.00;99.90
31735;DHT22;18313;48.518;9.124;2023-07-29T04:39:57;17.10;99.90
31735;DHT22;18313;48.518;9.124;2023-07-29T04:42:24;17.10;99.90
31735;DHT22;18313;48.518;9.124;2023-07-29T04:44:51;17.20;99.90
31735;DHT22;18313;48.518;9.124;2023-07-29T04:47:18;17.20;99.90
31735;DHT22;18313;48.518;9.124;2023-07-29T04:49:45;17.30;99.90
31735;DHT22;18313;48.518;9.124;2023-07-29T04:52:13;17.40;99.90
31735;DHT22;18313;48.518;9.124;2023-07-29T04:54:41;17.40;99.90
31735;DHT22;18313;48.518;9.124;2023-07-29T04:57:08;17.50;99.90
31735;DHT22;18313;48.518;9.124;2023-07-29T04:59:35;17.50;99.90
31735;DHT22;18313;48.518;9.124;2023-07-29T05:02:02;17.60;99.90
31735;DHT22;18313;48.518;9.124;2023-07-29T05:04:30;17.60;99.90
31735;DHT22;18313;48.518;9.124;2023-07-29T05:06:58;17.60;99.90
31735;DHT22;18313;48.518;9.124;2023-07-29T05:09:25;17.60;99.90
31735;DHT22;18313;48.518;9.124;2023-07-29T05:11:54;17.50;99.90
31735;DHT22;18313;48.518;9.124;2023-07-29T05:14:22;17.40;99.90
31735;DHT22;18313;48.518;9.124;2023-07-29T05:16:49;17.30;99.90
31735;DHT22;18313;48.518;9.124;2023-07-29T05:19:16;17.40;99.90
31735;DHT22;18313;48.518;9.124;2023-07-29T05:21:43;17.50;99.90
31735;DHT22;18313;48.518;9.124;2023-07-29T05:24:11;17.40;99.90
31735;DHT22;18313;48.518;9.124;2023-07-29T05:26:38;17.40;99.90
31735;DHT22;18313;48.518;9.124;2023-07-29T05:29:05;17.50;99.90
31735;DHT22;18313;48.518;9.124;2023-07-29T05:31:33;17.50;99.90
31735;DHT22;18313;48.518;9.124;2023-07-29T05:34:00;17.50;99.90
31735;DHT22;18313;48.518;9.124;2023-07-29T05:36:28;17.40;99.90
31735;DHT22;18313;48.518;9.124;2023-07-29T05:38:56;17.40;99.90
31735;DHT22;18313;48.518;9.124;2023-07-29T05:41:23;17.50;99.90
31735;DHT22;18313;48.518;9.124;2023-07-29T05:43:50;17.60;99.90
31735;DHT22;18313;48.518;9.124;2023-07-29T05:46:17;17.80;99.90
31735;DHT22;18313;48.518;9.124;2023-07-29T05:48:45;17.90;99.90
31735;DHT22;18313;48.518;9.124;2023-07-29T05:51:12;18.00;99.90
31735;DHT22;18313;48.518;9.124;2023-07-29T05:53:39;18.10;99.90
31735;DHT22;18313;48.518;9.124;2023-07-29T05:56:06;18.20;99.90
31735;DHT22;18313;48.518;9.124;2023-07-29T05:58:33;18.20;99.90
31735;DHT22;18313;48.518;9.124;2023-07-29T06:01:00;18.30;99.90
31735;DHT22;18313;48.518;9.124;2023-07-29T06:03:28;18.40;99.90
31735;DHT22;18313;48.518;9.124;2023-07-29T06:05:55;18.50;99.90
31735;DHT22;18313;48.518;9.124;2023-07-29T06:08:22;18.60;99.90
31735;DHT22;18313;48.518;9.124;2023-07-29T06:10:50;18.60;99.90
31735;DHT22;18313;48.518;9.124;2023-07-29T06:13:17;18.60;99.90
31735;DHT22;18313;48.518;9.124;2023-07-29T06:15:44;18.70;99.90
31735;DHT22;18313;48.518;9.124;2023-07-29T06:18:11;18.80;99.90
31735;DHT22;18313;48.518;9.124;2023-07-29T06:20:38;18.80;99.90
31735;DHT22;18313;48.518;9.124;2023-07-29T06:23:05;18.90;99.90
31735;DHT22;18313;48.518;9.124;2023-07-29T06:25:33;19.00;99.90
31735;DHT22;18313;48.518;9.124;2023-07-29T06:28:00;19.00;99.90
31735;DHT22;18313;48.518;9.124;2023-07-29T06:30:27;18.90;99.90
31735;DHT22;18313;48.518;9.124;2023-07-29T06:32:54;19.00;99.90
31735;DHT22;18313;48.518;9.124;2023-07-29T06:35:21;19.00;99.90
31735;DHT22;18313;48.518;9.124;2023-07-29T06:37:49;19.10;99.90
31735;DHT22;18313;48.518;9.124;2023-07-29T06:40:16;19.20;99.90
31735;DHT22;18313;48.518;9.124;2023-07-29T06:42:43;19.30;99.90
31735;DHT22;18313;48.518;9.124;2023-07-29T06:45:10;19.50;99.90
31735;DHT22;18313;48.518;9.124;2023-07-29T06:47:37;19.70;99.90
31735;DHT22;18313;48.518;9.124;2023-07-29T06:50:05;19.80;99.90
31735;DHT22;18313;48.518;9.124;2023-07-29T06:52:32;19.80;99.90
31735;DHT22;18313;48.518;9.124;2023-07-29T06:54:59;19.90;99.90
31735;DHT22;18313;48.518;9.124;2023-07-29T06:57:26;19.80;99.90
31735;DHT22;18313;48.518;9.124;2023-07-29T06:59:54;19.70;99.90
31735;DHT22;18313;48.518;9.124;2023-07-29T07:02:21;19.60;99.90
31735;DHT22;18313;48.518;9.124;2023-07-29T07:04:49;19.60;99.90
31735;DHT22;18313;48.518;9.124;2023-07-29T07:07:16;19.60;99.90
31735;DHT22;18313;48.518;9.124;2023-07-29T07:09:43;19.40;99.90
31735;DHT22;18313;48.518;9.124;2023-07-29T07:12:10;19.30;99.90
31735;DHT22;18313;48.518;9.124;2023-07-29T07:14:37;19.20;99.90
31735;DHT22;18313;48.518;9.124;2023-07-29T07:17:05;19.10;99.90
31735;DHT22;18313;48.518;9.124;2023-07-29T07:19:32;19.00;99.90
31735;DHT22;18313;48.518;9.124;2023-07-29T07:21:59;18.80;99.90
31735;DHT22;18313;48.518;9.124;2023-07-29T07:24:26;18.90;99.90
31735;DHT22;18313;48.518;9.124;2023-07-29T07:26:53;18.90;99.90
31735;DHT22;18313;48.518;9.124;2023-07-29T07:29:20;18.90;99.90
31735;DHT22;18313;48.518;9.124;2023-07-29T07:31:52;18.90;99.90
31735;DHT22;18313;48.518;9.124;2023-07-29T07:34:20;19.00;99.90
31735;DHT22;18313;48.518;9.124;2023-07-29T07:36:48;19.00;99.90
31735;DHT22;18313;48.518;9.124;2023-07-29T07:39:15;19.10;99.90
31735;DHT22;18313;48.518;9.124;2023-07-29T07:41:42;19.10;99.90
31735;DHT22;18313;48.518;9.124;2023-07-29T07:44:09;19.10;99.90
31735;DHT22;18313;48.518;9.124;2023-07-29T07:46:37;19.20;99.90
31735;DHT22;18313;48.518;9.124;2023-07-29T07:49:05;19.20;99.90
31735;DHT22;18313;48.518;9.124;2023-07-29T07:51:32;19.30;99.90
31735;DHT22;18313;48.518;9.124;2023-07-29T07:53:59;19.30;99.90
31735;DHT22;18313;48.518;9.124;2023-07-29T07:56:26;19.40;99.90
31735;DHT22;18313;48.518;9.124;2023-07-29T07:58:54;19.50;99.90
31735;DHT22;18313;48.518;9.124;2023-07-29T08:01:21;19.70;99.90
31735;DHT22;18313;48.518;9.124;2023-07-29T08:03:48;19.80;99.90
31735;DHT22;18313;48.518;9.124;2023-07-29T08:06:16;19.80;99.90
31735;DHT22;18313;48.518;9.124;2023-07-29T08:08:45;19.90;99.90
31735;DHT22;18313;48.518;9.124;2023-07-29T08:11:12;19.90;99.90
31735;DHT22;18313;48.518;9.124;2023-07-29T08:13:39;20.10;99.90
31735;DHT22;18313;48.518;9.124;2023-07-29T08:16:06;20.20;99.90
31735;DHT22;18313;48.518;9.124;2023-07-29T08:18:33;20.30;99.90
31735;DHT22;18313;48.518;9.124;2023-07-29T08:21:01;20.40;99.90
31735;DHT22;18313;48.518;9.124;2023-07-29T08:23:33;20.50;99.90
31735;DHT22;18313;48.518;9.124;2023-07-29T08:26:04;20.60;99.90
31735;DHT22;18313;48.518;9.124;2023-07-29T08:28:38;20.50;99.90
31735;DHT22;18313;48.518;9.124;2023-07-29T08:31:06;20.50;99.90
31735;DHT22;18313;48.518;9.124;2023-07-29T08:33:34;20.40;99.90
31735;DHT22;18313;48.518;9.124;2023-07-29T08:36:02;20.50;99.90
31735;DHT22;18313;48.518;9.124;2023-07-29T08:38:29;20.50;99.90
31735;DHT22;18313;48.518;9.124;2023-07-29T08:43:38;20.70;99.90
31735;DHT22;18313;48.518;9.124;2023-07-29T08:46:05;20.60;99.90
31735;DHT22;18313;48.518;9.124;2023-07-29T08:48:40;20.50;99.90
31735;DHT22;18313;48.518;9.124;2023-07-29T08:51:11;20.50;99.90
31735;DHT22;18313;48.518;9.124;2023-07-29T08:53:39;20.50;99.90
31735;DHT22;18313;48.518;9.124;2023-07-29T08:56:07;20.60;99.90
31735;DHT22;18313;48.518;9.124;2023-07-29T08:58:35;20.70;99.90
31735;DHT22;18313;48.518;9.124;2023-07-29T09:01:02;21.00;99.90
31735;DHT22;18313;48.518;9.124;2023-07-29T09:03:30;21.30;99.90
31735;DHT22;18313;48.518;9.124;2023-07-29T09:05:58;21.60;99.90
31735;DHT22;18313;48.518;9.124;2023-07-29T09:08:26;21.80;99.90
31735;DHT22;18313;48.518;9.124;2023-07-29T09:10:54;22.10;99.90
31735;DHT22;18313;48.518;9.124;2023-07-29T09:13:22;22.30;99.90
31735;DHT22;18313;48.518;9.124;2023-07-29T09:15:49;22.50;99.90
31735;DHT22;18313;48.518;9.124;2023-07-29T09:18:20;22.80;99.90
31735;DHT22;18313;48.518;9.124;2023-07-29T09:20:48;23.10;99.90
31735;DHT22;18313;48.518;9.124;2023-07-29T09:23:16;23.40;99.90
31735;DHT22;18313;48.518;9.124;2023-07-29T09:25:46;23.70;99.90
31735;DHT22;18313;48.518;9.124;2023-07-29T09:28:14;23.90;99.90
31735;DHT22;18313;48.518;9.124;2023-07-29T09:30:44;24.20;99.90
31735;DHT22;18313;48.518;9.124;2023-07-29T09:33:11;24.60;99.90
31735;DHT22;18313;48.518;9.124;2023-07-29T09:35:39;24.40;99.90
31735;DHT22;18313;48.518;9.124;2023-07-29T09:38:06;24.60;99.90
31735;DHT22;18313;48.518;9.124;2023-07-29T09:40:38;24.70;99.90
31735;DHT22;18313;48.518;9.124;2023-07-29T09:43:09;24.70;99.90
31735;DHT22;18313;48.518;9.124;2023-07-29T09:45:37;25.00;99.90
31735;DHT22;18313;48.518;9.124;2023-07-29T09:48:05;25.40;99.90
31735;DHT22;18313;48.518;9.124;2023-07-29T09:50:36;25.60;99.90
31735;DHT22;18313;48.518;9.124;2023-07-29T09:53:04;25.50;99.90
31735;DHT22;18313;48.518;9.124;2023-07-29T09:55:34;25.50;99.90
31735;DHT22;18313;48.518;9.124;2023-07-29T09:58:02;25.50;99.90
31735;DHT22;18313;48.518;9.124;2023-07-29T10:00:31;25.50;99.90
31735;DHT22;18313;48.518;9.124;2023-07-29T10:03:00;25.30;99.90
31735;DHT22;18313;48.518;9.124;2023-07-29T10:05:28;25.30;99.90
31735;DHT22;18313;48.518;9.124;2023-07-29T10:07:56;25.30;99.90
31735;DHT22;18313;48.518;9.124;2023-07-29T10:10:23;25.10;99.90
31735;DHT22;18313;48.518;9.124;2023-07-29T10:12:50;25.30;99.90
31735;DHT22;18313;48.518;9.124;2023-07-29T10:15:18;25.80;99.90
31735;DHT22;18313;48.518;9.124;2023-07-29T10:17:47;26.20;99.90
31735;DHT22;18313;48.518;9.124;2023-07-29T10:20:16;26.40;99.90
31735;DHT22;18313;48.518;9.124;2023-07-29T10:22:47;26.60;99.90
31735;DHT22;18313;48.518;9.124;2023-07-29T10:25:19;26.70;99.90
31735;DHT22;18313;48.518;9.124;2023-07-29T10:27:53;26.90;99.90
31735;DHT22;18313;48.518;9.124;2023-07-29T10:30:24;26.70;99.90
31735;DHT22;18313;48.518;9.124;2023-07-29T10:32:52;26.50;99.90
31735;DHT22;18313;48.518;9.124;2023-07-29T10:35:20;26.60;99.90
31735;DHT22;18313;48.518;9.124;2023-07-29T10:37:47;26.70;99.90
31735;DHT22;18313;48.518;9.124;2023-07-29T10:40:17;26.80;99.90
31735;DHT22;18313;48.518;9.124;2023-07-29T10:43:10;26.80;99.90
31735;DHT22;18313;48.518;9.124;2023-07-29T10:45:39;27.20;99.90
31735;DHT22;18313;48.518;9.124;2023-07-29T10:51:21;27.10;99.90
31735;DHT22;18313;48.518;9.124;2023-07-29T10:56:28;26.80;99.90
31735;DHT22;18313;48.518;9.124;2023-07-29T10:58:57;26.70;99.90
31735;DHT22;18313;48.518;9.124;2023-07-29T11:01:29;26.60;99.90
31735;DHT22;18313;48.518;9.124;2023-07-29T11:12:46;27.30;99.90
31735;DHT22;18313;48.518;9.124;2023-07-29T11:15:25;27.70;99.90
31735;DHT22;18313;48.518;9.124;2023-07-29T11:17:58;27.70;99.40
31735;DHT22;18313;48.518;9.124;2023-07-29T11:20:31;27.50;99.60
31735;DHT22;18313;48.518;9.124;2023-07-29T11:23:02;27.00;99.90
31735;DHT22;18313;48.518;9.124;2023-07-29T11:25:33;26.80;99.80
31735;DHT22;18313;48.518;9.124;2023-07-29T11:28:38;26.40;99.80
31735;DHT22;18313;48.518;9.124;2023-07-29T11:31:06;26.30;99.90
31735;DHT22;18313;48.518;9.124;2023-07-29T11:34:10;26.10;99.90
31735;DHT22;18313;48.518;9.124;2023-07-29T11:36:45;26.20;99.90
31735;DHT22;18313;48.518;9.124;2023-07-29T11:39:12;26.30;99.90
31735;DHT22;18313;48.518;9.124;2023-07-29T11:41:42;26.20;99.90
31735;DHT22;18313;48.518;9.124;2023-07-29T11:44:17;26.20;99.90
31735;DHT22;18313;48.518;9.124;2023-07-29T11:46:44;26.30;99.90
31735;DHT22;18313;48.518;9.124;2023-07-29T11:50:06;26.20;99.90
31735;DHT22;18313;48.518;9.124;2023-07-29T11:52:33;26.20;99.90
31735;DHT22;18313;48.518;9.124;2023-07-29T11:55:04;26.10;99.90
31735;DHT22;18313;48.518;9.124;2023-07-29T11:57:34;26.10;99.90
31735;DHT22;18313;48.518;9.124;2023-07-29T12:00:04;26.30;99.90
31735;DHT22;18313;48.518;9.124;2023-07-29T12:02:38;26.40;99.80
31735;DHT22;18313;48.518;9.124;2023-07-29T12:06:27;26.40;99.90
31735;DHT22;18313;48.518;9.124;2023-07-29T12:08:58;26.80;99.70
31735;DHT22;18313;48.518;9.124;2023-07-29T12:12:22;26.90;99.90
31735;DHT22;18313;48.518;9.124;2023-07-29T12:18:12;27.00;99.80
31735;DHT22;18313;48.518;9.124;2023-07-29T12:20:39;27.20;99.90
31735;DHT22;18313;48.518;9.124;2023-07-29T12:23:06;27.40;99.20
31735;DHT22;18313;48.518;9.124;2023-07-29T12:25:35;27.80;99.70
31735;DHT22;18313;48.518;9.124;2023-07-29T12:29:17;28.00;99.30
31735;DHT22;18313;48.518;9.124;2023-07-29T12:31:40;27.70;98.80
31735;DHT22;18313;48.518;9.124;2023-07-29T12:34:07;27.60;98.70
31735;DHT22;18313;48.518;9.124;2023-07-29T12:36:49;27.60;99.60
31735;DHT22;18313;48.518;9.124;2023-07-29T12:39:26;27.40;98.50
31735;DHT22;18313;48.518;9.124;2023-07-29T12:41:55;27.50;99.70
31735;DHT22;18313;48.518;9.124;2023-07-29T12:44:23;27.60;99.40
31735;DHT22;18313;48.518;9.124;2023-07-29T12:46:51;27.60;98.70
31735;DHT22;18313;48.518;9.124;2023-07-29T12:49:18;27.60;98.80
31735;DHT22;18313;48.518;9.124;2023-07-29T12:51:45;27.60;98.90
31735;DHT22;18313;48.518;9.124;2023-07-29T12:54:16;27.30;98.80
31735;DHT22;18313;48.518;9.124;2023-07-29T12:57:22;27.30;99.10
31735;DHT22;18313;48.518;9.124;2023-07-29T12:59:56;27.50;99.70
31735;DHT22;18313;48.518;9.124;2023-07-29T13:03:11;27.60;98.50
31735;DHT22;18313;48.518;9.124;2023-07-29T13:13:59;27.30;99.20
31735;DHT22;18313;48.518;9.124;2023-07-29T13:17:31;27.40;98.40
31735;DHT22;18313;48.518;9.124;2023-07-29T13:19:58;27.20;97.70
31735;DHT22;18313;48.518;9.124;2023-07-29T13:22:25;27.20;98.20
31735;DHT22;18313;48.518;9.124;2023-07-29T13:24:52;27.30;98.30
31735;DHT22;18313;48.518;9.124;2023-07-29T13:27:19;27.40;98.70
31735;DHT22;18313;48.518;9.124;2023-07-29T13:29:46;27.60;98.30
31735;DHT22;18313;48.518;9.124;2023-07-29T13:32:13;27.70;98.40
31735;DHT22;18313;48.518;9.124;2023-07-29T13:34:40;27.70;98.00
31735;DHT22;18313;48.518;9.124;2023-07-29T13:37:08;27.70;97.80
31735;DHT22;18313;48.518;9.124;2023-07-29T13:39:35;27.60;98.00
31735;DHT22;18313;48.518;9.124;2023-07-29T13:42:02;27.50;97.30
31735;DHT22;18313;48.518;9.124;2023-07-29T13:44:29;27.30;97.70
31735;DHT22;18313;48.518;9.124;2023-07-29T13:46:56;27.30;97.80
31735;DHT22;18313;48.518;9.124;2023-07-29T13:49:23;27.30;98.00
31735;DHT22;18313;48.518;9.124;2023-07-29T13:51:50;27.30;96.90
31735;DHT22;18313;48.518;9.124;2023-07-29T13:54:17;27.10;97.80
31735;DHT22;18313;48.518;9.124;2023-07-29T13:56:44;27.30;98.10
31735;DHT22;18313;48.518;9.124;2023-07-29T13:59:12;27.40;97.60
31735;DHT22;18313;48.518;9.124;2023-07-29T14:01:39;27.50;97.30
31735;DHT22;18313;48.518;9.124;2023-07-29T14:04:07;27.40;97.70
31735;DHT22;18313;48.518;9.124;2023-07-29T14:06:34;27.50;97.50
31735;DHT22;18313;48.518;9.124;2023-07-29T14:09:12;27.40;96.80
31735;DHT22;18313;48.518;9.124;2023-07-29T14:11:39;27.20;97.90
31735;DHT22;18313;48.518;9.124;2023-07-29T14:14:07;27.10;97.70
31735;DHT22;18313;48.518;9.124;2023-07-29T14:16:34;27.00;98.40
31735;DHT22;18313;48.518;9.124;2023-07-29T14:19:02;27.00;98.30
31735;DHT22;18313;48.518;9.124;2023-07-29T14:21:30;27.00;98.00
31735;DHT22;18313;48.518;9.124;2023-07-29T14:23:57;27.10;97.90
31735;DHT22;18313;48.518;9.124;2023-07-29T14:26:24;27.00;97.40
31735;DHT22;18313;48.518;9.124;2023-07-29T14:28:51;26.80;97.20
31735;DHT22;18313;48.518;9.124;2023-07-29T14:31:18;26.70;97.60
31735;DHT22;18313;48.518;9.124;2023-07-29T14:33:46;26.70;97.60
31735;DHT22;18313;48.518;9.124;2023-07-29T14:36:13;26.80;97.70
31735;DHT22;18313;48.518;9.124;2023-07-29T14:38:39;27.00;97.40
31735;DHT22;18313;48.518;9.124;2023-07-29T14:41:07;27.20;97.00
31735;DHT22;18313;48.518;9.124;2023-07-29T14:43:34;27.20;96.70
31735;DHT22;18313;48.518;9.124;2023-07-29T14:46:02;27.40;96.40
31735;DHT22;18313;48.518;9.124;2023-07-29T14:48:29;27.60;96.30
31735;DHT22;18313;48.518;9.124;2023-07-29T14:50:56;27.50;96.30
31735;DHT22;18313;48.518;9.124;2023-07-29T14:53:24;27.50;96.60
31735;DHT22;18313;48.518;9.124;2023-07-29T14:55:51;27.20;96.60
31735;DHT22;18313;48.518;9.124;2023-07-29T14:58:18;27.20;96.40
31735;DHT22;18313;48.518;9.124;2023-07-29T15:00:45;27.20;97.00
31735;DHT22;18313;48.518;9.124;2023-07-29T15:03:12;27.10;96.80
31735;DHT22;18313;48.518;9.124;2023-07-29T15:05:40;26.90;97.00
31735;DHT22;18313;48.518;9.124;2023-07-29T15:08:09;26.90;97.40
31735;DHT22;18313;48.518;9.124;2023-07-29T15:10:37;26.80;97.30
31735;DHT22;18313;48.518;9.124;2023-07-29T15:13:04;26.70;97.20
31735;DHT22;18313;48.518;9.124;2023-07-29T15:15:44;26.90;97.30
31735;DHT22;18313;48.518;9.124;2023-07-29T15:18:12;27.10;97.10
31735;DHT22;18313;48.518;9.124;2023-07-29T15:20:39;27.20;97.40
31735;DHT22;18313;48.518;9.124;2023-07-29T15:23:06;27.10;96.70
31735;DHT22;18313;48.518;9.124;2023-07-29T15:25:33;26.90;96.60
31735;DHT22;18313;48.518;9.124;2023-07-29T15:28:01;26.90;96.60
31735;DHT22;18313;48.518;9.124;2023-07-29T15:30:28;26.80;96.60
31735;DHT22;18313;48.518;9.124;2023-07-29T15:32:55;26.70;97.00
31735;DHT22;18313;48.518;9.124;2023-07-29T15:35:23;26.70;97.00
31735;DHT22;18313;48.518;9.124;2023-07-29T15:37:50;26.80;97.60
31735;DHT22;18313;48.518;9.124;2023-07-29T15:40:29;26.80;97.20
31735;DHT22;18313;48.518;9.124;2023-07-29T15:42:59;26.80;96.90
31735;DHT22;18313;48.518;9.124;2023-07-29T15:45:56;26.90;97.60
31735;DHT22;18313;48.518;9.124;2023-07-29T15:48:49;26.90;97.50
31735;DHT22;18313;48.518;9.124;2023-07-29T15:51:34;26.80;97.60
31735;DHT22;18313;48.518;9.124;2023-07-29T15:54:02;26.80;97.90
31735;DHT22;18313;48.518;9.124;2023-07-29T15:56:39;26.70;98.60
31735;DHT22;18313;48.518;9.124;2023-07-29T15:59:07;26.40;99.40
31735;DHT22;18313;48.518;9.124;2023-07-29T16:01:34;26.20;99.90
31735;DHT22;18313;48.518;9.124;2023-07-29T16:04:02;25.80;99.90
31735;DHT22;18313;48.518;9.124;2023-07-29T16:06:29;25.60;99.90
31735;DHT22;18313;48.518;9.124;2023-07-29T16:08:59;25.50;99.90
31735;DHT22;18313;48.518;9.124;2023-07-29T16:11:41;25.20;99.90
31735;DHT22;18313;48.518;9.124;2023-07-29T16:14:29;25.00;99.90
31735;DHT22;18313;48.518;9.124;2023-07-29T16:16:56;25.00;99.90
31735;DHT22;18313;48.518;9.124;2023-07-29T16:19:25;24.80;99.90
31735;DHT22;18313;48.518;9.124;2023-07-29T16:21:53;24.60;99.90